createdAt,value
2023-04-16T00:01:51.169Z,1.97
2023-04-16T00:04:40.373Z,1.90
2023-04-16T00:07:28.878Z,2.23
2023-04-16T00:10:17.505Z,2.33
2023-04-16T00:13:05.887Z,2.20
2023-04-16T00:15:54.396Z,1.93
2023-04-16T00:18:44.185Z,2.40
2023-04-16T00:21:32.569Z,2.10
2023-04-16T00:24:20.940Z,2.50
2023-04-16T00:27:09.350Z,2.20
2023-04-16T00:29:57.703Z,2.17
2023-04-16T00:32:46.174Z,2.00
2023-04-16T00:35:36.013Z,2.27
2023-04-16T00:38:24.371Z,2.20
2023-04-16T00:41:12.969Z,2.60
2023-04-16T00:44:01.355Z,2.67
2023-04-16T00:46:50.022Z,2.27
2023-04-16T00:49:38.395Z,2.53
2023-04-16T00:52:28.756Z,2.47
2023-04-16T00:55:18.985Z,2.30
2023-04-16T00:58:07.800Z,2.30
2023-04-16T01:00:56.771Z,2.50
2023-04-16T01:03:47.215Z,2.13
2023-04-16T01:06:36.287Z,1.97
2023-04-16T01:09:26.297Z,2.00
2023-04-16T01:12:14.764Z,1.93
2023-04-16T01:15:03.259Z,2.33
2023-04-16T01:17:52.193Z,2.77
2023-04-16T01:20:41.908Z,2.23
2023-04-16T01:23:30.374Z,2.27
2023-04-16T01:26:18.737Z,2.33
2023-04-16T01:29:07.238Z,2.00
2023-04-16T01:31:55.902Z,2.33
2023-04-16T01:34:49.404Z,2.00
2023-04-16T01:37:39.197Z,2.03
2023-04-16T01:40:27.558Z,2.53
2023-04-16T01:43:16.054Z,2.00
2023-04-16T01:46:15.069Z,2.10
2023-04-16T01:49:03.812Z,1.90
2023-04-16T01:51:53.056Z,1.83
2023-04-16T01:54:42.831Z,1.80
2023-04-16T01:57:31.370Z,1.70
2023-04-16T02:00:19.820Z,2.10
2023-04-16T02:03:08.337Z,1.93
2023-04-16T02:05:56.828Z,2.00
2023-04-16T02:08:45.222Z,2.07
2023-04-16T02:11:36.519Z,1.93
2023-04-16T02:14:25.689Z,1.90
2023-04-16T02:17:15.318Z,2.30
2023-04-16T02:20:07.966Z,1.87
2023-04-16T02:22:58.641Z,1.90
2023-04-16T02:25:48.692Z,1.90
2023-04-16T02:28:39.145Z,1.73
2023-04-16T02:31:28.906Z,1.83
2023-04-16T02:34:18.795Z,2.30
2023-04-16T02:37:07.400Z,2.20
2023-04-16T02:39:56.222Z,1.70
2023-04-16T02:42:44.576Z,1.70
2023-04-16T02:45:34.632Z,2.07
2023-04-16T02:48:23.014Z,1.60
2023-04-16T02:51:11.336Z,1.77
2023-04-16T02:53:59.754Z,2.20
2023-04-16T02:56:48.112Z,2.00
2023-04-16T02:59:36.456Z,1.67
2023-04-16T03:02:26.606Z,1.63
2023-04-16T03:05:15.077Z,1.93
2023-04-16T03:08:04.634Z,2.07
2023-04-16T03:10:53.044Z,1.87
2023-04-16T03:13:41.439Z,1.90
2023-04-16T03:16:29.804Z,2.37
2023-04-16T03:19:19.567Z,2.17
2023-04-16T03:22:07.912Z,1.90
2023-04-16T03:24:56.349Z,2.30
2023-04-16T03:27:45.346Z,2.20
2023-04-16T03:30:34.839Z,2.00
2023-04-16T03:33:23.504Z,2.03
2023-04-16T03:36:15.005Z,2.30
2023-04-16T03:39:03.438Z,2.47
2023-04-16T03:41:52.192Z,2.23
2023-04-16T03:44:40.609Z,2.17
2023-04-16T03:47:30.665Z,1.97
2023-04-16T03:50:22.950Z,1.60
2023-04-16T03:53:12.762Z,2.30
2023-04-16T03:56:01.685Z,2.10
2023-04-16T03:58:51.272Z,2.00
2023-04-16T04:01:40.644Z,1.90
2023-04-16T04:04:29.144Z,1.63
2023-04-16T04:07:19.344Z,2.07
2023-04-16T04:10:10.731Z,2.07
2023-04-16T04:13:02.583Z,2.60
2023-04-16T04:15:51.189Z,1.80
2023-04-16T04:18:39.556Z,1.80
2023-04-16T04:21:28.415Z,2.30
2023-04-16T04:24:16.808Z,1.97
2023-04-16T04:27:06.861Z,2.10
2023-04-16T04:29:55.265Z,2.20
2023-04-16T04:32:44.152Z,2.50
2023-04-16T04:35:32.677Z,2.43
2023-04-16T04:38:22.371Z,2.10
2023-04-16T04:41:11.782Z,2.80
2023-04-16T04:44:02.144Z,2.77
2023-04-16T04:46:50.655Z,1.87
2023-04-16T04:49:41.093Z,2.27
2023-04-16T04:52:29.808Z,2.17
2023-04-16T04:55:18.287Z,1.97
2023-04-16T04:58:07.446Z,2.10
2023-04-16T05:00:57.506Z,2.57
2023-04-16T05:03:45.924Z,2.07
2023-04-16T05:06:34.389Z,2.23
2023-04-16T05:09:22.754Z,2.57
2023-04-16T05:12:11.101Z,2.60
2023-04-16T05:14:59.443Z,2.80
2023-04-16T05:17:49.218Z,2.00
2023-04-16T05:20:38.007Z,2.77
2023-04-16T05:23:26.401Z,3.00
2023-04-16T05:26:14.775Z,1.80
2023-04-16T05:29:03.173Z,2.20
2023-04-16T05:31:51.739Z,2.47
2023-04-16T05:34:41.540Z,2.37
2023-04-16T05:37:29.884Z,2.00
2023-04-16T05:40:18.450Z,2.07
2023-04-16T05:43:06.774Z,2.33
2023-04-16T05:45:55.432Z,3.00
2023-04-16T05:48:43.842Z,2.23
2023-04-16T05:51:33.567Z,2.30
2023-04-16T05:54:21.958Z,2.03
2023-04-16T05:57:10.284Z,2.70
2023-04-16T05:59:58.664Z,2.60
2023-04-16T06:02:47.252Z,2.07
2023-04-16T06:05:35.941Z,1.93
2023-04-16T06:08:25.697Z,2.10
2023-04-16T06:11:14.106Z,2.50
2023-04-16T06:14:02.421Z,2.23
2023-04-16T06:16:51.048Z,1.67
2023-04-16T06:19:39.496Z,2.20
2023-04-16T06:22:27.910Z,2.17
2023-04-16T06:25:18.317Z,1.73
2023-04-16T06:28:07.031Z,1.83
2023-04-16T06:30:55.602Z,1.87
2023-04-16T06:33:43.919Z,2.17
2023-04-16T06:36:32.274Z,2.20
2023-04-16T06:39:21.788Z,1.80
2023-04-16T06:42:11.538Z,1.83
2023-04-16T06:45:00.678Z,2.37
2023-04-16T06:47:49.764Z,2.33
2023-04-16T06:50:38.328Z,2.37
2023-04-16T06:53:26.812Z,2.30
2023-04-16T06:56:15.154Z,1.97
2023-04-16T06:59:04.988Z,2.07
2023-04-16T07:01:53.709Z,2.17
2023-04-16T07:04:42.122Z,2.10
2023-04-16T07:07:31.015Z,2.07
2023-04-16T07:10:19.423Z,2.00
2023-04-16T07:13:07.950Z,2.00
2023-04-16T07:15:57.713Z,2.97
2023-04-16T07:18:46.083Z,1.83
2023-04-16T07:21:34.474Z,2.00
2023-04-16T07:24:22.826Z,2.27
2023-04-16T07:27:11.717Z,1.90
2023-04-16T07:30:00.041Z,2.03
2023-04-16T07:32:49.861Z,1.77
2023-04-16T07:35:38.326Z,1.70
2023-04-16T07:38:26.691Z,2.27
2023-04-16T07:41:16.604Z,1.80
2023-04-16T07:44:05.296Z,2.47
2023-04-16T07:46:53.855Z,1.97
2023-04-16T07:49:44.138Z,2.00
2023-04-16T07:52:32.552Z,1.90
2023-04-16T07:55:21.007Z,1.97
2023-04-16T07:58:09.656Z,2.33
2023-04-16T08:00:58.051Z,2.00
2023-04-16T08:03:46.701Z,2.10
2023-04-16T08:06:36.587Z,1.70
2023-04-16T08:09:27.554Z,2.20
2023-04-16T08:12:16.330Z,2.03
2023-04-16T08:15:05.118Z,1.70
2023-04-16T08:17:54.017Z,2.13
2023-04-16T08:20:42.592Z,2.00
2023-04-16T08:23:32.303Z,1.70
2023-04-16T08:26:20.756Z,1.90
2023-04-16T08:29:09.376Z,2.00
2023-04-16T08:31:58.092Z,1.80
2023-04-16T08:35:11.318Z,1.77
2023-04-16T08:38:02.167Z,1.63
2023-04-16T08:40:52.152Z,1.53
2023-04-16T08:43:44.463Z,1.30
2023-04-16T08:46:33.018Z,1.77
2023-04-16T08:49:21.366Z,1.43
2023-04-16T08:52:11.515Z,1.77
2023-04-16T08:55:06.359Z,1.63
2023-04-16T08:57:59.587Z,2.27
2023-04-16T09:00:48.766Z,1.83
2023-04-16T09:03:37.701Z,1.63
2023-04-16T09:06:26.427Z,2.00
2023-04-16T09:09:16.038Z,1.40
2023-04-16T09:12:04.897Z,1.50
2023-04-16T09:14:54.808Z,1.27
2023-04-16T09:17:43.226Z,1.40
2023-04-16T09:20:31.616Z,1.70
2023-04-16T09:23:20.027Z,1.57
2023-04-16T09:26:08.481Z,1.40
2023-04-16T09:28:56.980Z,1.40
2023-04-16T09:32:03.086Z,1.10
2023-04-16T09:35:01.898Z,1.40
2023-04-16T09:37:57.021Z,1.50
2023-04-16T09:40:47.441Z,1.30
2023-04-16T09:43:36.478Z,1.20
2023-04-16T09:46:25.786Z,1.33
2023-04-16T09:49:17.186Z,1.20
2023-04-16T09:52:10.679Z,1.33
2023-04-16T09:54:59.047Z,1.20
2023-04-16T09:57:48.700Z,1.20
2023-04-16T10:00:43.524Z,1.07
2023-04-16T10:03:32.824Z,1.03
2023-04-16T10:06:25.462Z,1.30
2023-04-16T10:09:13.805Z,1.00
2023-04-16T10:12:02.207Z,1.07
2023-04-16T10:14:50.744Z,1.20
2023-04-16T10:17:39.807Z,1.10
2023-04-16T10:20:28.237Z,1.10
2023-04-16T10:23:18.116Z,1.30
2023-04-16T10:26:06.995Z,1.03
2023-04-16T10:28:56.098Z,1.20
2023-04-16T10:31:44.496Z,1.00
2023-04-16T10:34:33.008Z,1.10
2023-04-16T10:37:21.411Z,1.03
2023-04-16T10:40:25.443Z,1.10
2023-04-16T10:43:18.975Z,1.10
2023-04-16T10:46:21.264Z,1.00
2023-04-16T10:49:17.746Z,1.10
2023-04-16T10:52:12.051Z,1.20
2023-04-16T10:55:00.940Z,1.00
2023-04-16T10:57:53.945Z,1.00
2023-04-16T11:00:50.863Z,1.13
2023-04-16T11:03:42.871Z,1.13
2023-04-16T11:06:32.110Z,1.00
2023-04-16T11:09:48.360Z,1.17
2023-04-16T11:12:38.502Z,1.10
2023-04-16T11:15:30.948Z,1.10
2023-04-16T11:18:20.600Z,1.00
2023-04-16T11:21:13.575Z,1.20
2023-04-16T11:24:01.948Z,1.00
2023-04-16T11:26:52.596Z,1.20
2023-04-16T11:29:41.512Z,1.00
2023-04-16T11:32:34.316Z,1.30
2023-04-16T11:35:22.885Z,1.17
2023-04-16T11:38:11.239Z,1.23
2023-04-16T11:40:59.571Z,1.37
2023-04-16T11:43:47.989Z,1.00
2023-04-16T11:46:40.656Z,1.07
2023-04-16T11:49:31.054Z,1.00
2023-04-16T11:52:29.883Z,1.10
2023-04-16T11:55:18.572Z,1.33
2023-04-16T11:58:12.835Z,1.00
2023-04-16T12:01:01.817Z,1.00
2023-04-16T12:03:51.464Z,1.00
2023-04-16T12:06:41.671Z,1.10
2023-04-16T12:09:30.052Z,1.10
2023-04-16T12:12:30.865Z,1.00
2023-04-16T12:15:19.924Z,1.00
2023-04-16T12:18:09.569Z,1.00
2023-04-16T12:20:58.231Z,1.03
2023-04-16T12:23:47.975Z,0.90
2023-04-16T12:26:41.216Z,1.00
2023-04-16T12:29:29.680Z,1.00
2023-04-16T12:32:24.215Z,0.97
2023-04-16T12:35:13.317Z,1.00
2023-04-16T12:38:03.518Z,1.00
2023-04-16T12:40:56.633Z,1.10
2023-04-16T12:44:12.040Z,1.00
2023-04-16T12:47:00.375Z,1.00
2023-04-16T12:49:48.739Z,1.00
2023-04-16T12:52:37.224Z,1.00
2023-04-16T12:55:25.719Z,0.90
2023-04-16T12:58:15.426Z,1.00
2023-04-16T13:01:03.754Z,1.00
2023-04-16T13:03:52.423Z,1.10
2023-04-16T13:06:42.406Z,1.10
2023-04-16T13:09:30.901Z,1.00
2023-04-16T13:12:19.366Z,1.00
2023-04-16T13:15:10.805Z,1.00
2023-04-16T13:17:59.185Z,1.00
2023-04-16T13:20:47.533Z,1.00
2023-04-16T13:23:36.283Z,0.93
2023-04-16T13:26:24.640Z,1.00
2023-04-16T13:29:12.984Z,1.00
2023-04-16T13:32:02.689Z,1.00
2023-04-16T13:34:51.073Z,1.20
2023-04-16T13:37:39.546Z,1.20
2023-04-16T13:40:27.945Z,0.90
2023-04-16T13:43:18.936Z,0.90
2023-04-16T13:46:07.519Z,1.07
2023-04-16T13:48:57.435Z,1.00
2023-04-16T13:51:45.795Z,1.00
2023-04-16T13:54:34.297Z,0.93
2023-04-16T13:57:22.757Z,1.00
2023-04-16T14:00:13.238Z,0.90
2023-04-16T14:03:01.916Z,1.00
2023-04-16T14:05:51.765Z,0.90
2023-04-16T14:08:40.147Z,0.90
2023-04-16T14:11:28.536Z,0.97
2023-04-16T14:14:16.922Z,0.90
2023-04-16T14:17:05.354Z,1.00
2023-04-16T14:19:53.744Z,1.00
2023-04-16T14:22:44.231Z,1.37
2023-04-16T14:25:32.647Z,1.00
2023-04-16T14:28:21.422Z,1.00
2023-04-16T14:31:09.857Z,1.10
2023-04-16T14:33:58.304Z,1.00
2023-04-16T14:36:46.944Z,0.90
2023-04-16T14:39:39.108Z,1.00
2023-04-16T14:42:27.825Z,1.00
2023-04-16T14:45:16.238Z,1.10
2023-04-16T14:48:05.159Z,1.00
2023-04-16T14:50:54.888Z,0.90
2023-04-16T14:53:43.256Z,1.00
2023-04-16T14:56:33.038Z,1.00
2023-04-16T14:59:21.386Z,1.00
2023-04-16T15:02:10.466Z,1.03
2023-04-16T15:04:58.909Z,0.97
2023-04-16T15:07:47.421Z,1.10
2023-04-16T15:10:36.107Z,1.00
2023-04-16T15:13:25.931Z,0.90
2023-04-16T15:16:14.336Z,1.10
2023-04-16T15:19:05.011Z,1.10
2023-04-16T15:21:53.691Z,1.00
2023-04-16T15:24:42.159Z,0.90
2023-04-16T15:27:30.591Z,0.90
2023-04-16T15:30:20.682Z,1.00
2023-04-16T15:33:09.417Z,1.17
2023-04-16T15:35:57.851Z,0.90
2023-04-16T15:38:46.141Z,0.90
2023-04-16T15:41:36.926Z,1.10
2023-04-16T15:44:25.444Z,1.03
2023-04-16T15:47:15.383Z,0.90
2023-04-16T15:50:03.807Z,0.93
2023-04-16T15:52:52.248Z,1.00
2023-04-16T15:55:40.699Z,1.00
2023-04-16T15:58:29.039Z,1.00
2023-04-16T16:01:18.018Z,1.00
2023-04-16T16:04:08.204Z,0.90
2023-04-16T16:06:57.485Z,1.10
2023-04-16T16:09:47.355Z,1.10
2023-04-16T16:12:35.783Z,0.90
2023-04-16T16:15:24.289Z,1.00
2023-04-16T16:18:12.625Z,1.00
2023-04-16T16:21:02.330Z,1.00
2023-04-16T16:23:50.750Z,1.10
2023-04-16T16:26:39.135Z,1.00
2023-04-16T16:29:27.593Z,1.00
2023-04-16T16:32:16.448Z,1.17
2023-04-16T16:35:05.706Z,1.10
2023-04-16T16:37:57.283Z,1.10
2023-04-16T16:40:45.641Z,1.23
2023-04-16T16:43:34.098Z,1.43
2023-04-16T16:46:22.479Z,1.20
2023-04-16T16:49:11.206Z,1.40
2023-04-16T16:52:00.167Z,1.30
2023-04-16T16:54:50.013Z,1.63
2023-04-16T16:57:38.910Z,1.53
2023-04-16T17:00:27.636Z,1.23
2023-04-16T17:03:17.094Z,1.30
2023-04-16T17:06:06.222Z,1.23
2023-04-16T17:08:54.572Z,1.20
2023-04-16T17:11:44.392Z,1.07
2023-04-16T17:14:33.386Z,1.30
2023-04-16T17:17:21.752Z,1.10
2023-04-16T17:20:12.328Z,1.10
2023-04-16T17:23:00.876Z,1.13
2023-04-16T17:25:49.282Z,1.10
2023-04-16T17:28:39.067Z,1.20
2023-04-16T17:31:27.853Z,1.23
2023-04-16T17:34:19.579Z,1.30
2023-04-16T17:37:08.015Z,1.60
2023-04-16T17:39:56.888Z,1.20
2023-04-16T17:42:46.223Z,1.50
2023-04-16T17:45:36.142Z,1.30
2023-04-16T17:48:24.492Z,1.20
2023-04-16T17:51:13.419Z,1.40
2023-04-16T17:54:03.386Z,1.37
2023-04-16T17:56:51.763Z,1.30
2023-04-16T17:59:40.190Z,1.20
2023-04-16T18:02:30.117Z,1.27
2023-04-16T18:05:19.029Z,1.20
2023-04-16T18:08:07.433Z,1.20
2023-04-16T18:10:56.788Z,1.40
2023-04-16T18:13:45.349Z,1.10
2023-04-16T18:16:33.752Z,1.30
2023-04-16T18:19:23.505Z,1.03
2023-04-16T18:22:13.353Z,1.13
2023-04-16T18:25:01.736Z,1.10
2023-04-16T18:27:50.108Z,1.10
2023-04-16T18:30:40.489Z,1.30
2023-04-16T18:33:52.589Z,1.40
2023-04-16T18:36:38.793Z,1.10
2023-04-16T18:39:27.268Z,1.20
2023-04-16T18:42:15.832Z,1.30
2023-04-16T18:45:05.906Z,1.30
2023-04-16T18:47:54.284Z,1.20
2023-04-16T18:50:42.726Z,1.30
2023-04-16T18:53:32.634Z,1.20
2023-04-16T18:56:21.070Z,1.20
2023-04-16T18:59:09.664Z,1.33
2023-04-16T19:01:58.326Z,1.40
2023-04-16T19:04:46.944Z,1.40
2023-04-16T19:07:36.158Z,1.40
2023-04-16T19:10:25.896Z,1.73
2023-04-16T19:13:14.254Z,1.30
2023-04-16T19:16:04.999Z,1.63
2023-04-16T19:18:53.376Z,1.83
2023-04-16T19:21:41.706Z,1.40
2023-04-16T19:24:30.877Z,1.70
2023-04-16T19:27:21.582Z,1.70
2023-04-16T19:30:10.924Z,1.30
2023-04-16T19:32:59.347Z,1.50
2023-04-16T19:35:48.110Z,1.30
2023-04-16T19:38:36.444Z,1.43
2023-04-16T19:41:24.890Z,1.27
2023-04-16T19:44:14.582Z,1.47
2023-04-16T19:47:02.956Z,1.40
2023-04-16T19:49:54.054Z,1.53
2023-04-16T19:52:42.387Z,1.67
2023-04-16T19:55:30.705Z,1.43
2023-04-16T19:58:19.096Z,1.60
2023-04-16T20:01:11.302Z,1.63
2023-04-16T20:03:59.709Z,1.70
2023-04-16T20:06:48.106Z,1.47
2023-04-16T20:09:36.482Z,1.47
2023-04-16T20:12:24.894Z,1.80
2023-04-16T20:15:13.351Z,1.60
2023-04-16T20:18:03.137Z,1.80
2023-04-16T20:20:51.682Z,1.83
2023-04-16T20:23:40.033Z,1.57
2023-04-16T20:26:33.544Z,1.97
2023-04-16T20:29:21.937Z,2.03
2023-04-16T20:32:10.309Z,1.63
2023-04-16T20:35:00.488Z,1.73
2023-04-16T20:37:48.933Z,1.90
2023-04-16T20:40:38.761Z,2.03
2023-04-16T20:43:29.568Z,2.10
2023-04-16T20:46:18.458Z,1.90
2023-04-16T20:49:08.237Z,1.83
2023-04-16T20:51:57.996Z,2.03
2023-04-16T20:54:47.202Z,2.23
2023-04-16T20:57:35.529Z,2.13
2023-04-16T21:00:24.162Z,2.17
2023-04-16T21:03:12.646Z,1.83
2023-04-16T21:06:01.822Z,2.20
2023-04-16T21:08:51.544Z,2.30
2023-04-16T21:11:39.978Z,1.90
2023-04-16T21:14:28.333Z,2.07
2023-04-16T21:17:16.679Z,2.13
2023-04-16T21:20:06.930Z,2.23
2023-04-16T21:22:56.910Z,2.40
2023-04-16T21:25:46.593Z,2.17
2023-04-16T21:28:34.950Z,2.10
2023-04-16T21:31:23.378Z,2.17
2023-04-16T21:34:11.782Z,2.20
2023-04-16T21:37:00.139Z,2.07
2023-04-16T21:39:48.559Z,2.17
2023-04-16T21:42:39.986Z,2.30
2023-04-16T21:45:30.437Z,2.10
2023-04-16T21:48:18.956Z,2.30
2023-04-16T21:51:08.155Z,2.07
2023-04-16T21:53:56.991Z,2.07
2023-04-16T21:56:45.366Z,2.00
2023-04-16T21:59:35.096Z,1.80
2023-04-16T22:02:23.534Z,2.10
2023-04-16T22:05:12.571Z,2.20
2023-04-16T22:08:05.800Z,1.77
2023-04-16T22:11:00.048Z,2.00
2023-04-16T22:13:49.507Z,2.10
2023-04-16T22:16:40.153Z,2.00
2023-04-16T22:19:28.692Z,1.83
2023-04-16T22:22:17.032Z,1.97
2023-04-16T22:25:06.101Z,1.87
2023-04-16T22:27:54.463Z,1.93
2023-04-16T22:30:42.881Z,2.50
2023-04-16T22:33:32.661Z,2.00
2023-04-16T22:36:21.036Z,2.13
2023-04-16T22:39:09.676Z,2.00
2023-04-16T22:41:58.465Z,1.67
2023-04-16T22:44:46.853Z,1.67
2023-04-16T22:47:35.407Z,1.77
2023-04-16T22:50:25.201Z,2.03
2023-04-16T22:53:13.603Z,2.37
2023-04-16T22:56:01.966Z,1.73
2023-04-16T22:58:50.390Z,1.80
2023-04-16T23:01:38.905Z,1.70
2023-04-16T23:04:27.458Z,1.80
2023-04-16T23:07:17.589Z,2.00
2023-04-16T23:10:08.337Z,1.53
2023-04-16T23:12:56.833Z,1.70
2023-04-16T23:15:47.222Z,1.60
2023-04-16T23:18:36.671Z,1.40
2023-04-16T23:21:25.066Z,1.43
2023-04-16T23:24:14.847Z,2.07
2023-04-16T23:27:03.462Z,1.80
2023-04-16T23:29:51.823Z,2.10
2023-04-16T23:32:40.318Z,1.90
2023-04-16T23:35:28.783Z,1.70
2023-04-16T23:38:17.242Z,1.63
2023-04-16T23:41:06.980Z,1.57
2023-04-16T23:43:55.320Z,1.60
2023-04-16T23:46:43.713Z,1.70
2023-04-16T23:49:32.197Z,1.60
2023-04-16T23:52:20.664Z,2.30
2023-04-16T23:55:09.639Z,1.60
2023-04-16T23:57:59.338Z,1.90
